Time;durP1;ratioP1;P1;durP2;ratioP2;P2;SDS_P1;SDS_P2;PMS_P1;PMS_P2;Temp;Humidity;BMP_temperature;BMP_pressure;BME280_temperature;BME280_humidity;BME280_pressure;Samples;Min_cycle;Max_cycle;Signal;HPM_P1;HPM_P2
2022/07/28 00:01:38;;;;;;;3.83;2.33;;;22.80;70.00;;;;;;5088868;28;20047;-82
2022/07/28 00:04:04;;;;;;;6.57;2.00;;;22.80;70.10;;;;;;5089245;28;20044;-82
2022/07/28 00:06:30;;;;;;;4.47;2.30;;;22.80;70.50;;;;;;5088876;28;20043;-81
2022/07/28 00:08:56;;;;;;;3.75;1.80;;;22.90;71.50;;;;;;5088809;28;20028;-81
2022/07/28 00:11:22;;;;;;;3.42;1.67;;;22.90;71.40;;;;;;5089057;28;20020;-80
2022/07/28 00:13:47;;;;;;;4.53;1.70;;;22.90;71.90;;;;;;5088661;28;20040;-82
2022/07/28 00:16:13;;;;;;;7.00;2.45;;;22.90;72.60;;;;;;5088736;28;20018;-81
2022/07/28 00:18:38;;;;;;;4.70;1.90;;;22.80;73.00;;;;;;5103527;28;20544;-81
2022/07/28 00:21:04;;;;;;;5.55;2.25;;;22.80;73.30;;;;;;5109611;28;20140;-81
2022/07/28 00:23:30;;;;;;;3.05;1.90;;;22.80;73.40;;;;;;5106428;28;20701;-81
2022/07/28 00:25:55;;;;;;;3.10;1.67;;;22.80;73.80;;;;;;5089083;28;20414;-81
2022/07/28 00:28:21;;;;;;;3.78;2.03;;;22.80;74.00;;;;;;5087943;28;20035;-80
2022/07/28 00:30:47;;;;;;;6.68;2.67;;;22.80;74.30;;;;;;5088881;28;20031;-81
2022/07/28 00:33:12;;;;;;;5.40;2.22;;;22.80;74.80;;;;;;5107331;28;20024;-80
2022/07/28 00:35:38;;;;;;;5.80;2.20;;;22.80;75.00;;;;;;5089097;28;20489;-82
2022/07/28 00:38:04;;;;;;;8.77;2.50;;;22.80;75.20;;;;;;5088713;28;20028;-81
2022/07/28 00:43:14;;;;;;;3.35;1.80;;;22.70;76.50;;;;;;5107499;28;20120;-81
2022/07/28 00:45:40;;;;;;;5.55;1.75;;;22.70;77.00;;;;;;5087752;28;20055;-80
2022/07/28 00:48:06;;;;;;;3.45;2.03;;;22.70;77.90;;;;;;5088362;28;20063;-80
2022/07/28 00:50:32;;;;;;;3.38;1.75;;;22.70;78.90;;;;;;5088524;28;20114;-81
2022/07/28 00:52:58;;;;;;;4.30;1.90;;;22.60;79.80;;;;;;5090832;28;20480;-80
2022/07/28 00:55:24;;;;;;;3.80;2.10;;;22.60;80.30;;;;;;5091879;28;20123;-80
2022/07/28 00:57:50;;;;;;;2.67;1.58;;;22.60;80.70;;;;;;5110150;28;20098;-80
2022/07/28 01:00:16;;;;;;;8.55;3.22;;;22.60;81.20;;;;;;5090953;28;20212;-81
2022/07/28 01:02:45;;;;;;;6.22;1.95;;;22.60;81.80;;;;;;5091444;28;20521;-81
2022/07/28 01:05:13;;;;;;;2.05;1.42;;;22.60;82.80;;;;;;5091683;28;20050;-81
2022/07/28 01:07:47;;;;;;;5.05;1.73;;;22.50;83.30;;;;;;5091808;28;20032;-81
2022/07/28 01:10:23;;;;;;;4.03;1.95;;;22.50;83.90;;;;;;5091721;28;20023;-82
2022/07/28 01:12:48;;;;;;;;;;;22.50;84.80;;;;;;5091060;28;20403;-80
2022/07/28 01:15:36;;;;;;;4.00;2.20;;;22.40;86.20;;;;;;5091359;28;20462;-81
2022/07/28 01:18:30;;;;;;;4.18;2.00;;;22.30;87.90;;;;;;5091010;28;20032;-81
2022/07/28 01:21:06;;;;;;;9.32;2.00;;;22.30;88.60;;;;;;5091371;28;20034;-81
2022/07/28 01:23:32;;;;;;;4.75;2.00;;;22.20;89.60;;;;;;5109467;28;20020;-81
2022/07/28 01:26:35;;;;;;;4.38;2.10;;;22.20;90.30;;;;;;5090574;28;20048;-80
2022/07/28 01:29:33;;;;;;;4.97;1.90;;;22.10;91.70;;;;;;5091223;28;20495;-78
2022/07/28 01:32:04;;;;;;;10.13;2.05;;;22.00;92.40;;;;;;5090799;28;20030;-81
2022/07/28 01:34:35;;;;;;;3.83;2.03;;;22.00;93.00;;;;;;5091057;28;20019;-80
2022/07/28 01:37:16;;;;;;;5.18;2.00;;;21.90;93.30;;;;;;5090658;28;20126;-80
2022/07/28 01:39:43;;;;;;;4.28;2.05;;;21.90;93.80;;;;;;5090633;28;20033;-82
2022/07/28 01:42:12;;;;;;;6.78;2.20;;;21.90;94.20;;;;;;5108702;28;20093;-81
2022/07/28 01:44:43;;;;;;;4.63;2.45;;;21.80;94.40;;;;;;5091323;28;20408;-81
2022/07/28 01:47:10;;;;;;;5.88;1.95;;;21.80;94.50;;;;;;5108839;28;20055;-81
2022/07/28 01:49:37;;;;;;;6.78;2.03;;;21.70;94.50;;;;;;5091212;28;20031;-80
2022/07/28 01:52:07;;;;;;;4.65;1.55;;;21.80;93.90;;;;;;5090690;28;20059;-83
2022/07/28 01:54:36;;;;;;;7.07;1.67;;;21.70;93.70;;;;;;5090786;28;20023;-81
2022/07/28 01:57:04;;;;;;;4.40;1.77;;;21.70;93.90;;;;;;5089926;28;20023;-81
2022/07/28 01:59:30;;;;;;;3.72;1.52;;;21.60;93.60;;;;;;5108227;28;20030;-81
2022/07/28 02:01:58;;;;;;;5.00;1.77;;;21.60;93.50;;;;;;5090864;28;20122;-81
2022/07/28 02:04:25;;;;;;;7.75;1.73;;;21.50;93.50;;;;;;5107535;28;20039;-80
2022/07/28 02:06:54;;;;;;;8.60;1.80;;;21.60;93.50;;;;;;5090120;28;20047;-81
2022/07/28 02:09:21;;;;;;;3.00;1.20;;;21.60;93.40;;;;;;5090122;28;20034;-80
2022/07/28 02:11:51;;;;;;;4.00;1.85;;;21.60;93.40;;;;;;5089504;28;20039;-81
2022/07/28 02:14:21;;;;;;;8.48;1.50;;;21.60;93.20;;;;;;5089772;28;20019;-81
2022/07/28 02:17:02;;;;;;;5.50;1.55;;;21.60;93.30;;;;;;5108200;28;20027;-81
2022/07/28 02:19:30;;;;;;;3.70;1.70;;;21.60;93.30;;;;;;5090184;28;20495;-80
2022/07/28 02:21:56;;;;;;;6.60;2.47;;;21.50;93.30;;;;;;5108580;28;20041;-80
2022/07/28 02:24:27;;;;;;;2.83;1.67;;;21.50;93.60;;;;;;5089600;28;20889;-82
2022/07/28 02:27:05;;;;;;;6.07;1.60;;;21.50;94.60;;;;;;5089718;28;20677;-81
2022/07/28 02:29:36;;;;;;;5.15;1.67;;;21.40;95.20;;;;;;5090341;28;20074;-81
2022/07/28 02:32:17;;;;;;;6.03;1.73;;;21.40;95.90;;;;;;5089158;28;20032;-82
2022/07/28 02:34:44;;;;;;;6.53;1.45;;;21.30;95.50;;;;;;5108075;28;20027;-82
2022/07/28 02:37:11;;;;;;;4.38;1.63;;;21.30;95.60;;;;;;5090256;28;20061;-82
2022/07/28 02:39:44;;;;;;;3.30;1.90;;;21.20;95.90;;;;;;5089471;28;20012;-81
2022/07/28 02:42:16;;;;;;;2.90;1.67;;;21.20;95.90;;;;;;5089458;28;20484;-82
2022/07/28 02:44:46;;;;;;;3.75;1.73;;;21.20;96.30;;;;;;5090032;28;20024;-82
2022/07/28 02:47:16;;;;;;;2.60;1.75;;;21.30;96.30;;;;;;5106727;28;20043;-81
2022/07/28 02:49:43;;;;;;;7.53;2.00;;;21.20;95.70;;;;;;5089598;28;20076;-79
2022/07/28 02:52:12;;;;;;;5.88;2.10;;;21.30;96.20;;;;;;5107079;28;20031;-79
2022/07/28 02:54:39;;;;;;;2.78;1.40;;;21.30;96.00;;;;;;5089356;28;20055;-82
2022/07/28 02:57:06;;;;;;;4.15;1.75;;;21.40;96.20;;;;;;5088749;28;20370;-82
2022/07/28 02:59:34;;;;;;;2.42;1.30;;;21.40;96.20;;;;;;5088848;28;20038;-82
2022/07/28 03:02:01;;;;;;;4.05;1.60;;;21.40;96.10;;;;;;5089572;28;20073;-81
2022/07/28 03:07:12;;;;;;;4.32;1.50;;;21.50;95.70;;;;;;5106940;28;20043;-81
2022/07/28 03:09:44;;;;;;;4.22;1.63;;;21.50;95.20;;;;;;5088065;28;20515;-80
2022/07/28 03:12:11;;;;;;;3.83;1.63;;;21.50;95.20;;;;;;5088824;28;20067;-81
2022/07/28 03:14:37;;;;;;;3.10;1.60;;;21.50;95.20;;;;;;5089118;28;20480;-81
2022/07/28 03:17:03;;;;;;;3.50;1.30;;;21.60;95.20;;;;;;5088488;28;20032;-82
2022/07/28 03:19:28;;;;;;;3.08;1.50;;;21.60;95.20;;;;;;5089131;28;20396;-81
2022/07/28 03:21:54;;;;;;;6.35;1.73;;;21.60;95.10;;;;;;5089346;28;20400;-81
2022/07/28 03:24:25;;;;;;;4.95;2.03;;;21.60;94.90;;;;;;5106874;28;20016;-80
2022/07/28 03:27:03;;;;;;;3.65;1.63;;;21.60;94.80;;;;;;5088849;28;20043;-82
2022/07/28 03:29:31;;;;;;;3.03;1.35;;;21.60;94.90;;;;;;5089564;28;20028;-83
2022/07/28 03:31:59;;;;;;;4.70;1.75;;;21.60;94.90;;;;;;5089280;28;20023;-82
2022/07/28 03:34:25;;;;;;;2.65;1.75;;;21.60;95.00;;;;;;5089116;28;20307;-82
2022/07/28 03:37:03;;;;;;;4.50;1.73;;;21.60;95.20;;;;;;5107495;28;20059;-82
2022/07/28 03:39:34;;;;;;;3.25;1.58;;;21.60;95.70;;;;;;5087812;28;20484;-81
2022/07/28 03:42:02;;;;;;;4.25;1.58;;;21.60;96.20;;;;;;5089041;28;20391;-81
2022/07/28 03:44:28;;;;;;;5.97;2.42;;;21.50;96.70;;;;;;5088187;28;20062;-82
2022/07/28 03:46:54;;;;;;;3.78;1.98;;;21.50;97.10;;;;;;5107119;28;20369;-81
2022/07/28 03:49:20;;;;;;;2.90;1.65;;;21.50;97.50;;;;;;5107102;28;20024;-81
2022/07/28 03:51:46;;;;;;;3.58;2.30;;;21.40;97.90;;;;;;5106819;28;20020;-81
2022/07/28 03:54:12;;;;;;;4.70;2.40;;;21.40;98.10;;;;;;5088841;28;20044;-81
2022/07/28 03:56:38;;;;;;;3.00;2.03;;;21.40;98.30;;;;;;5089293;28;20038;-81
2022/07/28 03:59:03;;;;;;;8.05;1.85;;;21.40;98.40;;;;;;5108052;28;20093;-82
2022/07/28 04:01:29;;;;;;;3.80;2.00;;;21.40;98.60;;;;;;5088533;28;20019;-80
2022/07/28 04:03:54;;;;;;;4.45;1.52;;;21.40;98.70;;;;;;5088744;28;20035;-82
2022/07/28 04:06:20;;;;;;;4.32;2.28;;;21.30;98.80;;;;;;5106864;28;20035;-82
2022/07/28 04:08:46;;;;;;;7.03;2.22;;;21.40;98.90;;;;;;5087823;28;20028;-81
2022/07/28 04:11:12;;;;;;;3.20;1.75;;;21.50;99.00;;;;;;5106832;28;20119;-81
2022/07/28 04:13:37;;;;;;;3.05;1.55;;;21.50;98.90;;;;;;5107011;28;20027;-81
2022/07/28 04:16:04;;;;;;;3.38;2.05;;;21.50;98.90;;;;;;5106188;28;20023;-83
2022/07/28 04:18:30;;;;;;;4.07;1.27;;;21.70;98.70;;;;;;5088832;28;20028;-83
2022/07/28 04:20:55;;;;;;;2.67;1.80;;;21.80;98.60;;;;;;5088993;28;20126;-82
2022/07/28 04:23:22;;;;;;;2.90;2.00;;;21.90;98.50;;;;;;5106463;28;20038;-83
2022/07/28 04:25:49;;;;;;;3.30;2.10;;;22.10;98.10;;;;;;5088226;28;20435;-82
2022/07/28 04:28:14;;;;;;;4.40;1.80;;;22.30;98.00;;;;;;5091889;28;20028;-83
2022/07/28 04:30:40;;;;;;;4.30;1.70;;;22.70;97.60;;;;;;5092638;28;20445;-83
2022/07/28 04:33:06;;;;;;;6.05;2.13;;;22.90;96.90;;;;;;5110496;28;20031;-81
2022/07/28 04:35:33;;;;;;;4.43;1.92;;;23.20;96.60;;;;;;5103847;28;20020;-83
2022/07/28 04:37:59;;;;;;;3.00;2.00;;;23.30;96.40;;;;;;5071672;28;20028;-81
2022/07/28 04:40:26;;;;;;;2.70;1.75;;;23.40;96.20;;;;;;5082407;28;20020;-81
2022/07/28 04:42:51;;;;;;;4.97;1.60;;;23.40;95.80;;;;;;5092420;28;20032;-80
2022/07/28 04:45:17;;;;;;;3.28;1.77;;;23.60;95.60;;;;;;5110398;28;20023;-81
2022/07/28 04:47:43;;;;;;;8.13;2.10;;;23.70;95.50;;;;;;5091893;28;20046;-81
2022/07/28 04:50:11;;;;;;;3.47;1.58;;;23.80;95.30;;;;;;5089241;28;20484;-79
2022/07/28 04:52:37;;;;;;;8.75;1.73;;;23.90;95.10;;;;;;5091271;28;20100;-81
2022/07/28 04:55:04;;;;;;;4.93;2.15;;;24.10;94.60;;;;;;5111653;27;20024;-81
2022/07/28 04:57:30;;;;;;;7.10;1.98;;;24.20;92.80;;;;;;5126522;27;20031;-79
2022/07/28 04:59:59;;;;;;;4.93;2.00;;;24.30;92.60;;;;;;5085010;28;20035;-81
2022/07/28 05:02:25;;;;;;;7.18;2.38;;;24.40;92.10;;;;;;5091407;28;20495;-80
2022/07/28 05:04:51;;;;;;;5.43;1.90;;;24.50;91.70;;;;;;5090969;28;20140;-80
2022/07/28 05:07:17;;;;;;;3.17;1.42;;;24.60;91.30;;;;;;5091066;28;20059;-80
2022/07/28 05:09:43;;;;;;;3.90;1.45;;;24.80;90.70;;;;;;5091265;28;20019;-81
2022/07/28 05:12:09;;;;;;;3.20;1.67;;;25.00;90.10;;;;;;5109878;28;20335;-81
2022/07/28 05:14:34;;;;;;;5.60;1.92;;;25.20;89.10;;;;;;5091268;28;20016;-80
2022/07/28 05:17:00;;;;;;;3.88;1.90;;;25.30;87.70;;;;;;5091084;28;20030;-81
2022/07/28 05:19:26;;;;;;;4.15;1.80;;;25.50;87.20;;;;;;5091545;28;20027;-81
2022/07/28 05:21:51;;;;;;;3.78;1.90;;;25.80;85.70;;;;;;5090786;28;20488;-81
2022/07/28 05:24:17;;;;;;;8.52;2.42;;;26.00;84.30;;;;;;5108947;28;20106;-81
2022/07/28 05:26:43;;;;;;;4.00;2.15;;;26.20;82.90;;;;;;5109550;28;20092;-82
2022/07/28 05:29:08;;;;;;;3.80;1.98;;;26.30;83.30;;;;;;5089536;28;20029;-81
2022/07/28 05:31:34;;;;;;;5.63;2.80;;;26.40;81.30;;;;;;5103798;28;20019;-81
2022/07/28 05:34:00;;;;;;;4.93;2.00;;;26.40;80.40;;;;;;5109686;28;20043;-82
2022/07/28 05:36:26;;;;;;;11.43;2.13;;;26.40;79.90;;;;;;5109908;28;20046;-79
2022/07/28 05:38:52;;;;;;;6.00;1.90;;;26.50;78.40;;;;;;5085275;28;20036;-83
2022/07/28 05:41:17;;;;;;;4.43;2.05;;;26.50;78.70;;;;;;5088895;28;20037;-82
2022/07/28 05:43:43;;;;;;;4.30;2.15;;;26.50;78.90;;;;;;5091009;28;20027;-83
2022/07/28 05:46:09;;;;;;;8.57;2.47;;;26.60;78.70;;;;;;5088888;28;20516;-81
2022/07/28 05:48:34;;;;;;;5.07;2.75;;;26.80;76.70;;;;;;5082457;28;20031;-81
2022/07/28 05:51:00;;;;;;;11.70;3.92;;;26.90;76.00;;;;;;5089940;28;20508;-81
2022/07/28 05:53:26;;;;;;;5.35;2.35;;;26.80;77.00;;;;;;5089974;28;20055;-82
2022/07/28 05:55:52;;;;;;;5.40;2.45;;;26.70;75.40;;;;;;5107360;28;20023;-80
2022/07/28 05:58:21;;;;;;;8.52;2.80;;;26.60;75.30;;;;;;5085227;28;20043;-81
2022/07/28 06:00:47;;;;;;;6.20;2.97;;;26.60;75.00;;;;;;5107679;28;20440;-79
2022/07/28 06:03:13;;;;;;;9.30;2.50;;;26.60;75.10;;;;;;5111126;27;20067;-81
2022/07/28 06:05:39;;;;;;;9.13;2.88;;;26.50;75.30;;;;;;5089631;28;20051;-81
2022/07/28 06:08:04;;;;;;;9.63;2.40;;;26.50;75.10;;;;;;5089591;28;20056;-81
2022/07/28 06:10:57;;;;;;;3.10;2.20;;;26.50;75.70;;;;;;5093199;27;20122;-80
2022/07/28 06:13:17;;;;;;;10.95;3.20;;;26.50;75.20;;;;;;5123029;27;20483;-80
2022/07/28 06:15:45;;;;;;;9.48;2.40;;;26.30;74.10;;;;;;5100080;28;20023;-82
2022/07/28 06:18:11;;;;;;;3.42;2.22;;;26.20;74.70;;;;;;5090280;28;20030;-80
2022/07/28 06:20:37;;;;;;;7.22;2.20;;;26.20;75.60;;;;;;5090258;28;20027;-80
2022/07/28 06:23:03;;;;;;;5.60;2.30;;;26.20;75.30;;;;;;5091805;27;20431;-80
2022/07/28 06:25:28;;;;;;;3.72;2.40;;;26.20;75.20;;;;;;5107083;27;20034;-78
2022/07/28 06:27:59;;;;;;;7.13;2.88;;;26.20;75.20;;;;;;5106877;28;20102;-80
2022/07/28 06:30:26;;;;;;;4.63;2.45;;;26.30;75.70;;;;;;5107330;28;20051;-80
2022/07/28 06:35:36;;;;;;;6.63;2.35;;;26.60;74.70;;;;;;5105717;28;20120;-79
2022/07/28 06:38:02;;;;;;;4.25;2.35;;;26.70;74.40;;;;;;5095385;28;20661;-78
2022/07/28 06:40:27;;;;;;;5.05;2.13;;;26.70;74.50;;;;;;5089600;28;20046;-79
2022/07/28 06:42:53;;;;;;;5.68;2.63;;;26.80;74.40;;;;;;5088682;28;20024;-80
2022/07/28 06:45:19;;;;;;;5.57;2.47;;;27.00;73.70;;;;;;5104534;28;20040;-79
2022/07/28 06:47:45;;;;;;;11.27;3.08;;;27.10;72.60;;;;;;5085899;28;20032;-80
2022/07/28 06:50:11;;;;;;;3.60;2.30;;;27.20;72.20;;;;;;5100312;28;20028;-80
2022/07/28 06:52:37;;;;;;;7.10;2.22;;;27.20;72.40;;;;;;5107127;28;20031;-80
2022/07/28 06:55:04;;;;;;;5.93;2.97;;;27.10;71.50;;;;;;5089214;28;20529;-79
2022/07/28 06:57:32;;;;;;;6.43;2.72;;;27.10;70.90;;;;;;5088881;28;20039;-78
2022/07/28 06:59:58;;;;;;;8.07;2.58;;;27.10;70.10;;;;;;5107090;28;20051;-81
2022/07/28 07:02:23;;;;;;;5.97;2.30;;;27.00;70.20;;;;;;5107500;28;20078;-80
2022/07/28 07:04:50;;;;;;;3.42;2.13;;;26.90;71.00;;;;;;5107081;28;20027;-79
2022/07/28 07:07:16;;;;;;;3.13;2.28;;;27.00;71.50;;;;;;5088273;28;20077;-80
2022/07/28 07:09:42;;;;;;;7.28;2.28;;;27.20;71.90;;;;;;5105929;28;20458;-80
2022/07/28 07:12:08;;;;;;;9.68;2.45;;;27.40;70.70;;;;;;5097935;28;20512;-80
2022/07/28 07:14:33;;;;;;;3.60;2.38;;;27.60;70.90;;;;;;5086362;28;20018;-80
2022/07/28 07:16:59;;;;;;;10.35;2.60;;;27.70;70.00;;;;;;5068502;28;20035;-80
2022/07/28 07:19:25;;;;;;;3.30;2.15;;;27.70;69.40;;;;;;5068486;28;20319;-80
2022/07/28 07:21:50;;;;;;;3.95;2.08;;;27.80;69.10;;;;;;5086789;28;20035;-79
2022/07/28 07:24:17;;;;;;;5.38;2.53;;;28.00;69.10;;;;;;5077653;28;20019;-80
2022/07/28 07:26:43;;;;;;;6.35;2.17;;;28.20;68.60;;;;;;5088333;28;20059;-80
2022/07/28 07:29:09;;;;;;;7.03;2.20;;;28.30;67.40;;;;;;5106860;28;20031;-80
2022/07/28 07:31:37;;;;;;;5.53;2.13;;;28.20;68.20;;;;;;5088622;28;20510;-80
2022/07/28 07:34:03;;;;;;;4.90;1.90;;;28.10;67.90;;;;;;5088694;28;20032;-79
2022/07/28 07:36:29;;;;;;;11.57;2.92;;;28.00;68.20;;;;;;5088475;28;20059;-80
2022/07/28 07:38:55;;;;;;;5.28;2.05;;;28.00;68.40;;;;;;5106498;28;20070;-80
2022/07/28 07:41:21;;;;;;;7.22;2.40;;;28.10;67.70;;;;;;5086718;28;20059;-80
2022/07/28 07:43:47;;;;;;;13.75;2.42;;;28.60;67.40;;;;;;5088219;28;20125;-80
2022/07/28 07:46:13;;;;;;;2.75;2.10;;;29.40;65.90;;;;;;5106356;28;20055;-80
2022/07/28 07:48:39;;;;;;;5.80;2.10;;;30.00;63.60;;;;;;5106824;28;20039;-81
2022/07/28 07:51:04;;;;;;;6.70;2.35;;;30.80;62.00;;;;;;5106622;28;20033;-81
2022/07/28 07:53:30;;;;;;;6.05;1.88;;;31.60;58.20;;;;;;5105876;28;20103;-81
2022/07/28 07:55:56;;;;;;;4.90;2.22;;;32.00;56.30;;;;;;5088526;28;20031;-80
2022/07/28 07:58:22;;;;;;;5.63;2.30;;;32.50;55.10;;;;;;5087952;28;20035;-81
2022/07/28 08:00:47;;;;;;;3.67;1.75;;;32.80;53.30;;;;;;5106520;28;20066;-79
2022/07/28 08:03:16;;;;;;;8.02;2.35;;;33.10;52.50;;;;;;5091872;28;20019;-80
2022/07/28 08:05:42;;;;;;;3.67;2.03;;;33.60;50.70;;;;;;5092098;28;20099;-80
2022/07/28 08:08:08;;;;;;;4.40;2.10;;;34.00;48.40;;;;;;5091322;28;20039;-80
2022/07/28 08:10:35;;;;;;;5.68;2.13;;;34.30;46.00;;;;;;5092084;28;20024;-81
2022/07/28 08:13:01;;;;;;;3.67;1.85;;;34.20;46.20;;;;;;5092085;28;20032;-81
2022/07/28 08:15:27;;;;;;;3.58;1.63;;;34.00;46.10;;;;;;5092145;28;20024;-80
2022/07/28 08:17:53;;;;;;;8.65;1.98;;;34.20;45.60;;;;;;5109692;28;20106;-80
2022/07/28 08:20:19;;;;;;;3.67;2.22;;;35.00;44.50;;;;;;5091558;28;20038;-80
2022/07/28 08:22:52;;;;;;;5.43;1.75;;;35.30;44.20;;;;;;5109837;28;20035;-81
2022/07/28 08:25:18;;;;;;;8.35;2.20;;;35.70;43.20;;;;;;5109846;28;20522;-79
2022/07/28 08:27:44;;;;;;;4.18;1.98;;;36.10;42.10;;;;;;5110366;28;20117;-81
2022/07/28 08:30:11;;;;;;;10.98;2.08;;;36.30;41.80;;;;;;5091878;28;20432;-81
2022/07/28 08:32:37;;;;;;;4.63;2.28;;;36.50;41.40;;;;;;5109166;28;20027;-79
2022/07/28 08:35:03;;;;;;;5.05;1.95;;;36.80;41.40;;;;;;5091884;28;20095;-81
2022/07/28 08:37:29;;;;;;;7.32;2.10;;;37.30;40.40;;;;;;5109572;28;20023;-80
2022/07/28 08:39:54;;;;;;;11.70;2.25;;;37.50;38.90;;;;;;5091337;28;20027;-81
2022/07/28 08:42:37;;;;;;;9.07;1.67;;;37.60;39.00;;;;;;5109926;28;20107;-81
2022/07/28 08:45:05;;;;;;;5.88;1.83;;;38.00;37.10;;;;;;5110220;28;20578;-81
2022/07/28 08:47:33;;;;;;;4.72;1.80;;;37.90;36.70;;;;;;5109547;28;20046;-80
2022/07/28 08:50:00;;;;;;;3.67;1.63;;;38.00;37.30;;;;;;5109992;28;20024;-80
2022/07/28 08:52:31;;;;;;;5.28;1.90;;;38.10;37.40;;;;;;5102581;28;20031;-81
2022/07/28 08:54:58;;;;;;;3.55;1.92;;;38.40;35.80;;;;;;5109536;28;20016;-81
2022/07/28 08:57:35;;;;;;;6.88;2.17;;;38.30;34.70;;;;;;5109368;28;20088;-81
2022/07/28 09:00:01;;;;;;;5.75;1.77;;;37.90;35.00;;;;;;5109529;28;20032;-79
2022/07/28 09:02:28;;;;;;;4.28;1.90;;;37.40;36.20;;;;;;5091331;28;20492;-81
2022/07/28 09:04:55;;;;;;;4.63;2.30;;;37.30;36.60;;;;;;5091139;28;20072;-82
2022/07/28 09:07:25;;;;;;;2.13;1.77;;;37.20;35.60;;;;;;5108253;28;20427;-81
2022/07/28 09:09:51;;;;;;;4.25;1.75;;;37.10;36.20;;;;;;5108853;28;20443;-80
2022/07/28 09:12:17;;;;;;;3.60;1.80;;;37.50;36.60;;;;;;5089178;28;20735;-82
2022/07/28 09:14:43;;;;;;;3.25;1.77;;;37.60;35.20;;;;;;5109261;28;20503;-81
2022/07/28 09:17:09;;;;;;;8.38;2.05;;;38.20;35.80;;;;;;5090328;28;20035;-81
2022/07/28 09:19:36;;;;;;;15.27;2.00;;;38.40;34.60;;;;;;5109000;28;20028;-81
2022/07/28 09:22:02;;;;;;;4.88;2.03;;;38.50;35.20;;;;;;5108564;28;20488;-81
2022/07/28 09:24:39;;;;;;;4.80;1.67;;;39.00;34.70;;;;;;5109070;28;20526;-81
2022/07/28 09:27:11;;;;;;;5.07;1.83;;;39.00;33.60;;;;;;5090125;28;20040;-82
2022/07/28 09:29:38;;;;;;;3.63;1.85;;;39.00;33.90;;;;;;5108874;28;20436;-81
2022/07/28 09:32:05;;;;;;;4.13;1.95;;;39.30;33.80;;;;;;5090679;28;20487;-80
2022/07/28 09:34:47;;;;;;;6.32;4.13;;;39.50;33.60;;;;;;5108372;28;20016;-81
2022/07/28 09:37:24;;;;;;;13.25;7.97;;;39.80;33.20;;;;;;5089686;28;20023;-81
2022/07/28 09:39:56;;;;;;;9.13;3.33;;;40.20;32.60;;;;;;5089951;28;20024;-81
2022/07/28 09:42:23;;;;;;;7.63;5.47;;;40.40;32.50;;;;;;5108796;28;20047;-82
2022/07/28 09:45:06;;;;;;;6.47;2.00;;;40.10;31.60;;;;;;5089944;28;20403;-80
2022/07/28 09:47:33;;;;;;;3.75;1.90;;;40.20;31.30;;;;;;5108456;28;20039;-81
2022/07/28 09:50:00;;;;;;;8.13;3.42;;;39.80;31.70;;;;;;5090442;28;20111;-81
2022/07/28 09:52:29;;;;;;;11.93;2.28;;;39.90;32.30;;;;;;5107337;28;20064;-81
2022/07/28 09:55:09;;;;;;;4.75;2.10;;;40.20;30.80;;;;;;5090211;28;20033;-81
2022/07/28 09:57:36;;;;;;;5.13;2.28;;;40.00;30.50;;;;;;5090023;28;20020;-81
2022/07/28 10:00:08;;;;;;;3.83;1.92;;;39.60;30.90;;;;;;5108305;28;20456;-81
2022/07/28 10:02:35;;;;;;;11.68;2.88;;;38.80;31.30;;;;;;5089564;28;20110;-81
2022/07/28 10:05:01;;;;;;;11.77;2.17;;;38.30;32.30;;;;;;5108415;28;20449;-80
2022/07/28 10:07:28;;;;;;;8.30;2.65;;;38.00;32.00;;;;;;5107459;28;20138;-81
2022/07/28 10:09:55;;;;;;;4.13;1.75;;;37.60;33.30;;;;;;5089625;28;20164;-82
2022/07/28 10:12:26;;;;;;;4.60;1.55;;;37.70;33.30;;;;;;5108489;28;20028;-80
2022/07/28 10:14:54;;;;;;;3.50;1.58;;;37.90;33.20;;;;;;5107705;28;20094;-81
2022/07/28 10:17:28;;;;;;;4.15;1.92;;;37.90;33.30;;;;;;5089154;28;20039;-80
2022/07/28 10:19:58;;;;;;;6.53;2.47;;;37.80;33.60;;;;;;5089237;28;20043;-80
2022/07/28 10:22:27;;;;;;;4.47;1.88;;;37.50;34.40;;;;;;5107648;28;20699;-81
2022/07/28 10:24:53;;;;;;;5.28;1.70;;;37.20;33.70;;;;;;5106621;28;20110;-81
2022/07/28 10:27:23;;;;;;;3.95;1.65;;;36.80;33.70;;;;;;5089576;28;20067;-81
2022/07/28 10:30:00;;;;;;;3.38;2.28;;;36.30;33.80;;;;;;5107605;28;20028;-80
2022/07/28 10:32:30;;;;;;;5.32;1.67;;;36.10;34.70;;;;;;5089082;28;20032;-80
2022/07/28 10:35:02;;;;;;;4.32;1.95;;;36.10;34.00;;;;;;5088628;28;20051;-79
2022/07/28 10:37:33;;;;;;;4.75;2.08;;;35.40;35.20;;;;;;5107260;28;20031;-81
2022/07/28 10:40:01;;;;;;;4.00;1.63;;;35.20;35.90;;;;;;5088874;28;20032;-80
2022/07/28 10:42:28;;;;;;;5.10;1.25;;;35.20;36.30;;;;;;5107087;28;20070;-80
2022/07/28 10:44:54;;;;;;;8.98;1.63;;;35.20;36.00;;;;;;5107476;28;20055;-81
2022/07/28 10:47:22;;;;;;;11.60;2.00;;;35.10;35.20;;;;;;5088846;28;20036;-81
2022/07/28 10:49:48;;;;;;;3.28;1.77;;;34.50;36.00;;;;;;5088918;28;20019;-81
2022/07/28 10:52:16;;;;;;;2.90;1.92;;;34.40;36.70;;;;;;5088827;28;20484;-81
2022/07/28 10:55:21;;;;;;;3.28;1.88;;;34.20;36.80;;;;;;5107363;28;20098;-80
2022/07/28 10:58:18;;;;;;;5.40;2.50;;;34.00;37.00;;;;;;5088944;28;20020;-79
2022/07/28 11:00:49;;;;;;;7.00;3.42;;;33.80;37.80;;;;;;5107131;28;20094;-80
2022/07/28 11:03:45;;;;;;;4.45;1.90;;;33.80;38.20;;;;;;5089160;28;20075;-80
2022/07/28 11:06:38;;;;;;;2.90;1.55;;;34.10;38.10;;;;;;5088058;28;20476;-81
2022/07/28 11:09:16;;;;;;;3.67;1.70;;;34.30;37.30;;;;;;5107086;28;20034;-81
2022/07/28 11:11:46;;;;;;;5.25;1.58;;;34.50;37.40;;;;;;5107291;28;20585;-81
2022/07/28 11:14:24;;;;;;;2.70;1.42;;;34.50;36.80;;;;;;5089014;28;20023;-80
2022/07/28 11:17:13;;;;;;;3.95;2.30;;;34.30;36.50;;;;;;5106542;28;20027;-82
2022/07/28 11:19:45;;;;;;;6.40;1.90;;;34.40;37.40;;;;;;5106345;28;20187;-79
2022/07/28 11:22:14;;;;;;;3.72;2.10;;;34.40;36.80;;;;;;5107092;28;20624;-81
2022/07/28 11:25:00;;;;;;;5.43;2.05;;;34.40;36.60;;;;;;5088339;28;20023;-79
2022/07/28 11:27:38;;;;;;;4.13;1.40;;;34.50;37.10;;;;;;5088394;28;20101;-80
2022/07/28 11:30:24;;;;;;;3.30;1.88;;;34.60;37.70;;;;;;5088724;28;20061;-81
2022/07/28 11:32:50;;;;;;;4.75;1.55;;;34.60;36.90;;;;;;5088029;28;20126;-81
2022/07/28 11:35:17;;;;;;;4.43;1.80;;;34.80;36.80;;;;;;5087384;28;20111;-80
2022/07/28 11:38:07;;;;;;;7.50;1.40;;;34.70;37.00;;;;;;5105744;28;20015;-81
2022/07/28 11:40:42;;;;;;;4.10;2.08;;;34.80;36.60;;;;;;5106139;28;20028;-81
2022/07/28 11:43:23;;;;;;;15.77;2.00;;;34.80;36.30;;;;;;5088388;28;20034;-80
2022/07/28 11:46:13;;;;;;;6.18;1.70;;;34.80;36.00;;;;;;5088008;28;20050;-79
2022/07/28 11:48:40;;;;;;;4.63;1.85;;;34.80;36.60;;;;;;5106295;28;20035;-80
2022/07/28 11:51:06;;;;;;;4.82;1.63;;;34.80;36.40;;;;;;5105950;28;20103;-80
2022/07/28 11:53:34;;;;;;;6.78;1.58;;;34.90;36.70;;;;;;5087921;28;20596;-81
2022/07/28 11:56:08;;;;;;;14.63;1.77;;;35.00;36.80;;;;;;5106490;28;20028;-80
2022/07/28 11:58:35;;;;;;;2.83;1.85;;;35.10;35.80;;;;;;5106079;28;20031;-79
2022/07/28 12:01:30;;;;;;;6.63;1.60;;;35.20;36.00;;;;;;5088529;28;20024;-81
2022/07/28 12:03:57;;;;;;;3.70;1.60;;;35.30;36.20;;;;;;5084438;28;20598;-80
2022/07/28 12:06:25;;;;;;;5.88;1.75;;;35.40;36.00;;;;;;5087154;28;20071;-81
2022/07/28 12:08:56;;;;;;;4.22;1.83;;;35.30;35.30;;;;;;5106656;28;20657;-81
2022/07/28 12:11:26;;;;;;;4.95;1.60;;;35.40;34.90;;;;;;5106764;28;20038;-78
2022/07/28 12:14:08;;;;;;;4.15;1.65;;;35.40;35.40;;;;;;5087583;28;20077;-78
2022/07/28 12:16:37;;;;;;;9.63;1.73;;;35.50;35.20;;;;;;5088276;28;20047;-78
2022/07/28 12:19:04;;;;;;;5.03;2.28;;;35.50;35.00;;;;;;5088057;28;20486;-80
2022/07/28 12:21:43;;;;;;;5.72;1.55;;;35.40;34.60;;;;;;5087387;28;20024;-80
2022/07/28 12:24:11;;;;;;;9.55;1.80;;;35.20;34.80;;;;;;5085615;28;20047;-78
2022/07/28 12:26:38;;;;;;;9.38;2.03;;;35.20;34.60;;;;;;5094781;28;20036;-78
2022/07/28 12:29:05;;;;;;;4.55;1.52;;;35.20;35.60;;;;;;5083169;28;20108;-80
2022/07/28 12:31:36;;;;;;;2.97;1.73;;;35.20;35.30;;;;;;5087006;28;20038;-79
2022/07/28 12:34:08;;;;;;;2.83;1.30;;;35.30;35.90;;;;;;5102959;28;20395;-79
2022/07/28 12:36:35;;;;;;;7.75;1.42;;;35.30;34.40;;;;;;5105637;28;20027;-79
2022/07/28 12:39:04;;;;;;;5.10;1.77;;;35.40;34.70;;;;;;5126256;28;20021;-78
2022/07/28 12:41:35;;;;;;;4.75;1.88;;;35.50;34.60;;;;;;5107450;28;20072;-80
2022/07/28 12:44:02;;;;;;;3.10;1.40;;;35.50;34.70;;;;;;5108251;28;20114;-82
2022/07/28 12:46:29;;;;;;;4.55;1.48;;;35.50;34.20;;;;;;5088203;28;20032;-79
2022/07/28 12:48:56;;;;;;;6.75;2.25;;;35.30;34.40;;;;;;5108985;28;20136;-81
2022/07/28 12:51:33;;;;;;;2.58;1.60;;;35.00;34.20;;;;;;5090542;28;20035;-78
2022/07/28 12:54:00;;;;;;;3.28;1.77;;;34.50;34.50;;;;;;5076670;28;20521;-79
2022/07/28 12:56:26;;;;;;;4.40;1.98;;;34.20;35.10;;;;;;5071366;28;20115;-80
2022/07/28 12:59:09;;;;;;;5.65;1.83;;;34.00;35.70;;;;;;5071262;28;20123;-80
2022/07/28 13:01:54;;;;;;;3.88;1.88;;;34.00;35.40;;;;;;5108586;28;20114;-78
2022/07/28 13:04:39;;;;;;;8.82;1.88;;;33.70;35.70;;;;;;5090987;28;20446;-79